Aktualne dane pomiarowe

Uwaga, wersja testowa! Automatyczne pobieranie danych za pomocą narzędzi lub skryptów to umożliwiających jest zabronione.

Dane meteo z obszaru Polski uzyskane na podstawie depesz SYNOP pobieranych co godzinę z NWS. Najedź myszką na symbol przedstawiony w tabeli, aby uzyskać informacje co do jego znaczenia. Prosimy pamiętać, że to testowa wersja strony, która jeszcze nie jest ukończona. Stworzono również jest krótki FAQ dotyczący korzystania z tej podstrony Anomalie temperatury w chwili obecnej odniesione są do okresu referencyjnego 1951-2016. Okres ten będzie później zmieniony na 1981-2010. Kliknij ikonę aby pobrać plik CSV. Kliknij ikonę aby wygenerować mapę synoptyczną dla danego terminu.

Wybierz Datę:    

        

Katowice (12560)

Dane terminowe dla wybranej stacji. Kliknij datę, aby otrzymać dane z tego terminu dla wszystkich stacji.

TemperaturaZachmurzenieWiatrCiśnienieOpadyPogoda
 Data t td wb tx tn tg rh  Nt Nl Cl Cm Ch ws wd g1 g2 wx mslp ppp ch 24h 12h t ww ww w1 w2  
2019-06-25 23:00:00 23.2 18.5 19.9--- 7515.0wx-wx1wx--11024.4 991.9 0.6---------
2019-06-25 22:00:00 22.3 17.7 19.1--- 7515.0wx-wx0---01024.4 991.8 0.9---------
2019-06-25 21:00:00 22.0 18.2 19.3--- 7915.0wx-wx1wx--11024.1 991.5 0.7---------
2019-06-25 20:00:00 23.9 17.9 19.8--- 6915.0wx-wx1wx--11023.7 991.3 0.6---------
2019-06-25 19:00:00 26.9 17.7 20.8--- 5720.0wx-wx1wx--11023.0 990.9 0.1---------
2019-06-25 18:00:00 28.8 17.3 21.3 31.4 22.7- 5030.0wx-wx2wx-821022.7 990.8 -0.2- 0.012------
2019-06-25 17:00:00 30.2 17.0 21.6--- 4530.0wxwxwx3wx---1022.4 990.7 -0.7---------
2019-06-25 16:00:00 30.6 17.0 21.7--- 4430.0wxwxwx3wx--31022.5 990.8 -0.9---------
2019-06-25 15:00:00 30.8 16.0 21.3--- 4130.0wxwxwx3wx-831022.7 991.0 -0.9---------
2019-06-25 14:00:00 30.5 15.4 20.9--- 4030.0wxwxwx2wx---1023.1 991.4 -0.7---------
2019-06-25 13:00:00 31.0 15.8 21.3--- 4030.0wxwxwx3wx-831023.4 991.7 -0.6---------
2019-06-25 12:00:00 29.6 15.7 20.7--- 4330.0wxwxwx2wx--21023.7 991.9 -0.6- 0.06------
2019-06-25 11:00:00 29.1 16.0 20.7--- 4530.0wxwxwx2wx--21024.0 992.1 -0.3---------
2019-06-25 10:00:00 27.8 16.1 20.2--- 4930.0wxwxwx2wx--21024.3 992.3 0.1---------
2019-06-25 09:00:00 27.4 17.0 20.6--- 5330.0wx-3wx---1024.6 992.5 0.6---------
2019-06-25 08:00:00 25.4 17.1 19.9--- 6020.0wx-4wx--41024.7 992.4 0.5---------
2019-06-25 07:00:00 23.9 17.6 19.6--- 6820.0wx-wx4wx--41024.6 992.2 0.4---------
2019-06-25 06:00:00 22.7 17.6 19.2 23.7 15.4 13 7320.0wx-wx5wx--51024.5 991.9 0.2- 0.012----- 12.3
2019-06-25 05:00:00 20.2 16.8 17.8--- 8130.0wx-wx3wx--31024.8 991.9 0.2---------
2019-06-25 04:00:00 18.1 16.3 16.8--- 8930.0wx-wx2wx--21024.9 991.8 0.1---------
2019-06-25 03:00:00 16.9 15.2 15.7--- 9030.0wx-wx2wx--21024.9 991.7 -0.1---------
2019-06-25 02:00:00 15.8 14.3 14.7--- 9130.0wx-1wx--11025.1 991.7 -0.3---------
2019-06-25 01:00:00 16.9 15.6 16.0--- 9230.0wx-2wx--21024.9 991.7 -0.3---------
2019-06-25 00:00:00 15.7 13.9 14.4--- 8930.0wx-1wx--11025.2 991.8 -0.2- 0.06------
2019-06-24 23:00:00 16.8 14.3 15.1--- 8530.0wx-1wx---1025.2 992.0 0.2---------
2019-06-24 22:00:00 17.4 14.5 15.4--- 8330.0wx-1wx--11025.2 992.0 0.6---------
2019-06-24 21:00:00 18.8 14.3 15.8--- 7530.0wx-1wx--11025.0 992.0 0.9---------
2019-06-24 20:00:00 20.1 13.5 15.8--- 6650.0wx-wx2wx---1024.7 991.8 1.0---------
2019-06-24 19:00:00 22.1 13.4 16.6--- 5850.0wx-wx3wx--31024.0 991.4 0.9---------
2019-06-24 18:00:00 23.7 13.3 17.2 27.2 20.8- 5230.0wx-wx4wx-941023.5 991.1 0.7- 0.012------
2019-06-24 17:00:00 24.7 13.6 17.8--- 5030.0wxwxwxwx4wx--41023.1 990.8 0.2---------
2019-06-24 16:00:00 25.7 12.9 17.8--- 4530.0wxwxwxwx5wx--51022.7 990.5 -0.2---------
2019-06-24 15:00:00 26.3 11.6 17.4--- 4030.0wxwxwxwx5wx-951022.5 990.4 -0.4---------
2019-06-24 14:00:00 26.7 10.4 17.1--- 3630.0wxwxwxwx5wx---1022.7 990.6 -0.3---------
2019-06-24 13:00:00 26.0 11.4 17.2--- 4030.0wxwxwxwxwx5wx---1022.9 990.7 -0.1---------
2019-06-24 12:00:00 25.5 12.7 17.6--- 4530.0wxwxwxwxwx5wx--51023.0 990.8 0.2- 0.06------
2019-06-24 11:00:00 24.2 12.8 17.2--- 4930.0wxwxwx3wx--31023.3 990.9 0.6---------
2019-06-24 10:00:00 24.8 13.0 17.5--- 4830.0wxwxwxwx5wx--51023.1 990.8 0.7---------
2019-06-24 09:00:00 24.9 13.1 17.6--- 4830.0wxwxwxwx5wx--51022.9 990.6 0.7---------
2019-06-24 08:00:00 24.1 13.3 17.4--- 5130.0wxwxwxwx5wx---1022.7 990.3 0.7---------
2019-06-24 07:00:00 22.4 14.8 17.5--- 6230.0wxwxwxwx3wx--31022.6 990.1 0.3---------
2019-06-24 06:00:00 20.8 13.0 15.9 23.6 17.3 16 6130.0wx-wx2wx--21022.6 989.9 0.5- 0.012----- 9.3
2019-06-24 05:00:00 19.2 11.5 14.4--- 6130.0wx-wx2wx--21022.5 989.6 0.3---------
2019-06-24 04:00:00 18.3 9.9 13.2--- 5830.0wx-wx1wx--11022.8 989.8 0.7---------
2019-06-24 03:00:00 17.7 8.8 12.5--- 5630.0wxwxwxwxwx1wx--11022.5 989.4 0.2---------
2019-06-24 02:00:00 17.8 8.4 12.3--- 5430.0wxwxwxwx1wx--11022.3 989.3 0.3---------
2019-06-24 01:00:00 17.5 7.8 11.9--- 5350.0wx-wx1wx--11022.2 989.1 0.5---------
2019-06-24 00:00:00 17.7 7.7 12.0--- 5250.0wx-wxwx2wx-721022.3 989.2 0.8- 0.06------
1.6 ms

 

Print Friendly, PDF & Email